createdAt,value
2023-03-12T17:17:00.893Z,-11058.13
2023-03-12T17:20:10.697Z,-11053.06
2023-03-12T17:23:17.257Z,-11049.13
2023-03-12T17:26:23.688Z,-11047.59
2023-03-12T17:29:30.320Z,-11051.38
2023-03-12T17:32:38.428Z,-11049.56
2023-03-12T17:35:45.464Z,-11047.03
2023-03-12T17:38:52.072Z,-11049.28
2023-03-12T17:41:58.699Z,-11054.03
2023-03-12T17:45:06.942Z,-11048.72
2023-03-12T17:48:15.060Z,-11044.38
2023-03-12T17:51:22.233Z,-11040.28
2023-03-12T17:54:28.245Z,-11039.03
2023-03-12T17:57:35.064Z,-11040.00
2023-03-12T18:00:41.714Z,-11041.13
2023-03-12T18:03:51.306Z,-11036.09
2023-03-12T18:06:57.886Z,-11049.00
2023-03-12T18:10:06.018Z,-11039.72
2023-03-12T18:13:12.576Z,-11043.25
2023-03-12T18:16:19.651Z,-11035.25
2023-03-12T18:19:29.459Z,-11025.44
2023-03-12T18:22:35.843Z,-11035.38
2023-03-12T18:25:42.292Z,-11042.53
2023-03-12T18:28:50.606Z,-11031.16
2023-03-12T18:31:57.139Z,-11027.37
2023-03-12T18:35:06.891Z,-11025.44
2023-03-12T18:38:13.483Z,-11025.44
2023-03-12T18:41:19.894Z,-11031.16
2023-03-12T18:44:26.402Z,-11028.78
2023-03-12T18:47:35.047Z,-11031.16
2023-03-12T18:50:42.795Z,-11027.94
2023-03-12T18:53:49.115Z,-11018.97
2023-03-12T18:56:55.243Z,-11021.50
2023-03-12T19:00:01.682Z,-11029.06
2023-03-12T19:03:08.082Z,-11027.53
2023-03-12T19:06:17.866Z,-11017.44
2023-03-12T19:09:24.394Z,-11024.88
2023-03-12T19:12:36.546Z,-11025.16
2023-03-12T19:15:45.924Z,-11011.53
2023-03-12T19:18:52.583Z,-11010.84
2023-03-12T19:22:00.298Z,-11011.41
2023-03-12T19:25:07.913Z,-11003.13
2023-03-12T19:28:14.472Z,-10995.69
2023-03-12T19:31:21.214Z,-11006.34
2023-03-12T19:34:27.596Z,-11004.94
2023-03-12T19:37:35.389Z,-11010.84
2023-03-12T19:40:41.738Z,-11002.16
2023-03-12T19:43:48.459Z,-11009.16
2023-03-12T19:46:54.701Z,-11011.13
2023-03-12T19:50:01.087Z,-10997.94
2023-03-12T19:53:10.412Z,-10998.50
2023-03-12T19:56:18.551Z,-10976.50
2023-03-12T19:59:25.245Z,-10975.38
2023-03-12T20:02:31.831Z,-10981.13
2023-03-12T20:05:38.401Z,-10979.44
2023-03-12T20:08:46.084Z,-10968.78
2023-03-12T20:11:52.295Z,-10975.66
2023-03-12T20:14:58.871Z,-10976.34
2023-03-12T20:18:05.646Z,-10972.00
2023-03-12T20:21:12.400Z,-10965.84
2023-03-12T20:24:20.600Z,-10973.00
2023-03-12T20:27:27.654Z,-10962.34
2023-03-12T20:30:34.035Z,-10957.56
2023-03-12T20:33:40.661Z,-10970.88
2023-03-12T20:36:47.070Z,-10969.06
2023-03-12T20:39:54.881Z,-10982.38
2023-03-12T20:43:04.925Z,-10963.19
2023-03-12T20:46:12.470Z,-10969.91
2023-03-12T20:49:19.020Z,-10977.19
2023-03-12T20:52:25.306Z,-10966.97
2023-03-12T20:55:32.928Z,-10968.78
2023-03-12T20:58:40.150Z,-10974.94
2023-03-12T21:01:46.878Z,-10973.00
2023-03-12T21:04:54.089Z,-10971.03
2023-03-12T21:08:00.768Z,-10971.31
2023-03-12T21:11:09.696Z,-10974.94
2023-03-12T21:14:15.974Z,-10974.53
2023-03-12T21:17:23.215Z,-10977.19
2023-03-12T21:20:30.283Z,-10971.16
2023-03-12T21:23:38.026Z,-10978.59
2023-03-12T21:26:46.230Z,-10959.81
2023-03-12T21:29:53.630Z,-10938.66
2023-03-12T21:33:00.012Z,-10952.53
2023-03-12T21:36:07.811Z,-10937.13
2023-03-12T21:39:14.328Z,-10938.53
2023-03-12T21:42:22.321Z,-10945.81
2023-03-12T21:45:28.503Z,-10943.97
2023-03-12T21:48:35.249Z,-10922.69
2023-03-12T21:51:41.687Z,-10921.56
2023-03-12T21:54:48.121Z,-10920.72
2023-03-12T21:57:55.752Z,-10927.88
2023-03-12T22:01:07.696Z,-10919.47
2023-03-12T22:04:14.192Z,-10922.56
2023-03-12T22:07:20.677Z,-10938.25
2023-03-12T22:10:26.997Z,-10947.50
2023-03-12T22:13:35.375Z,-10956.31
2023-03-12T22:16:41.940Z,-10938.81
2023-03-12T22:19:48.397Z,-10929.28
2023-03-12T22:22:55.152Z,-10918.06
2023-03-12T22:26:02.145Z,-10940.19
2023-03-12T22:29:10.687Z,-10944.81
2023-03-12T22:32:17.284Z,-10942.88
2023-03-12T22:35:25.996Z,-10931.81
2023-03-12T22:38:32.607Z,-10919.47
2023-03-12T22:41:38.923Z,-10909.94
2023-03-12T22:44:46.459Z,-10902.41
2023-03-12T22:47:52.903Z,-10916.69
2023-03-12T22:50:59.113Z,-10905.19
2023-03-12T22:54:05.707Z,-10904.22
2023-03-12T22:57:12.214Z,-10905.34
2023-03-12T23:00:23.250Z,-10914.44
2023-03-12T23:03:30.247Z,-10925.78
2023-03-12T23:06:36.682Z,-10927.59
2023-03-12T23:09:42.918Z,-10916.69
2023-03-12T23:12:49.168Z,-10909.69
2023-03-12T23:15:56.786Z,-10915.00
2023-03-12T23:19:03.300Z,-10909.81
2023-03-12T23:22:09.181Z,-10905.47
2023-03-12T23:25:15.194Z,-10913.47
2023-03-12T23:28:21.610Z,-10920.03
2023-03-12T23:31:30.556Z,-10902.13
2023-03-12T23:34:36.710Z,-10914.28
2023-03-12T23:37:43.071Z,-10927.59
2023-03-12T23:40:49.264Z,-10933.19
2023-03-12T23:43:55.706Z,-10936.56
2023-03-12T23:47:03.496Z,-10932.91
2023-03-12T23:50:11.670Z,-10928.03
2023-03-12T23:53:18.339Z,-10940.47
2023-03-12T23:56:27.177Z,-10930.13
2023-03-12T23:59:33.704Z,-10934.59
